createdAt,value
2018-07-22T00:00:15.917Z,5.87
2018-07-22T00:02:44.255Z,5.60
2018-07-22T00:05:12.572Z,6.17
2018-07-22T00:07:40.889Z,6.50
2018-07-22T00:10:19.811Z,6.07
2018-07-22T00:12:48.128Z,6.67
2018-07-22T00:15:16.414Z,7.30
2018-07-22T00:17:44.743Z,6.77
2018-07-22T00:20:13.062Z,7.70
2018-07-22T00:22:41.118Z,8.37
2018-07-22T00:25:09.410Z,7.63
2018-07-22T00:27:37.921Z,6.33
2018-07-22T00:30:06.843Z,5.93
2018-07-22T00:32:35.203Z,5.10
2018-07-22T00:35:03.515Z,5.57
2018-07-22T00:37:31.869Z,5.03
2018-07-22T00:40:00.192Z,5.87
2018-07-22T00:42:28.499Z,5.53
2018-07-22T00:51:35.013Z,5.40
2018-07-22T00:54:03.394Z,5.30
2018-07-22T00:56:31.709Z,5.13
2018-07-22T00:59:00.000Z,5.20
2018-07-22T01:01:28.302Z,4.87
2018-07-22T01:03:56.361Z,5.00
2018-07-22T01:06:24.682Z,5.13
2018-07-22T01:08:53.184Z,4.73
2018-07-22T01:11:21.575Z,4.43
2018-07-22T01:13:49.951Z,5.00
2018-07-22T01:16:18.289Z,4.20
2018-07-22T01:18:46.618Z,4.10
2018-07-22T01:21:14.992Z,4.67
2018-07-22T01:23:43.351Z,4.70
2018-07-22T01:26:11.743Z,4.53
2018-07-22T01:28:40.111Z,4.60
2018-07-22T01:31:08.748Z,4.10
2018-07-22T01:33:37.084Z,4.20
2018-07-22T01:36:05.460Z,3.90
2018-07-22T01:38:33.799Z,3.87
2018-07-22T01:41:02.119Z,4.00
2018-07-22T01:43:30.441Z,3.80
2018-07-22T01:45:58.759Z,3.67
2018-07-22T01:48:27.088Z,4.17
2018-07-22T01:50:55.139Z,4.20
2018-07-22T01:53:23.503Z,4.27
2018-07-22T01:55:51.857Z,4.10
2018-07-22T01:58:20.159Z,3.93
2018-07-22T02:00:48.487Z,4.10
2018-07-22T02:03:16.825Z,4.13
2018-07-22T02:05:45.182Z,4.00
2018-07-22T02:08:13.508Z,4.00
2018-07-22T02:10:41.852Z,3.43
2018-07-22T02:13:10.219Z,4.00
2018-07-22T02:15:38.662Z,3.90
2018-07-22T02:18:06.987Z,3.50
2018-07-22T02:20:35.320Z,3.43
2018-07-22T02:23:03.631Z,3.63
2018-07-22T02:25:31.919Z,3.30
2018-07-22T02:28:00.228Z,3.70
2018-07-22T02:30:28.527Z,3.73
2018-07-22T02:32:56.822Z,3.30
2018-07-22T02:35:25.120Z,3.57
2018-07-22T02:37:53.431Z,2.97
2018-07-22T02:40:21.745Z,3.53
2018-07-22T02:42:50.071Z,3.80
2018-07-22T02:45:18.382Z,3.53
2018-07-22T02:47:46.699Z,3.50
2018-07-22T02:50:15.019Z,3.60
2018-07-22T02:52:43.130Z,3.50
2018-07-22T02:55:11.419Z,3.53
2018-07-22T02:57:39.727Z,3.40
2018-07-22T03:00:08.214Z,3.53
2018-07-22T03:02:36.550Z,3.83
2018-07-22T03:05:04.884Z,3.17
2018-07-22T03:07:33.186Z,3.30
2018-07-22T03:10:01.508Z,3.67
2018-07-22T03:12:29.848Z,3.30
2018-07-22T03:14:58.175Z,3.80
2018-07-22T03:17:26.508Z,3.50
2018-07-22T03:19:54.819Z,3.50
2018-07-22T03:22:23.126Z,3.40
2018-07-22T03:24:51.443Z,3.40
2018-07-22T03:27:19.802Z,3.20
2018-07-22T03:29:48.133Z,3.40
2018-07-22T03:32:16.462Z,3.33
2018-07-22T03:34:44.808Z,3.57
2018-07-22T03:37:13.136Z,3.30
2018-07-22T03:39:41.451Z,3.57
2018-07-22T03:42:09.999Z,3.30
2018-07-22T03:44:38.302Z,3.73
2018-07-22T03:47:06.604Z,3.17
2018-07-22T03:49:34.674Z,3.17
2018-07-22T03:52:02.976Z,3.50
2018-07-22T03:54:31.043Z,3.53
2018-07-22T03:56:59.419Z,3.30
2018-07-22T03:59:27.744Z,3.37
2018-07-22T04:01:56.075Z,3.33
2018-07-22T04:04:24.399Z,3.10
2018-07-22T04:06:52.744Z,3.87
2018-07-22T04:09:21.070Z,3.23
2018-07-22T04:11:49.444Z,3.43
2018-07-22T04:14:17.764Z,3.57
2018-07-22T04:16:46.083Z,3.37
2018-07-22T04:19:14.410Z,3.50
2018-07-22T04:21:42.727Z,3.37
2018-07-22T04:24:11.056Z,3.23
2018-07-22T04:26:39.379Z,3.20
2018-07-22T04:29:07.695Z,3.63
2018-07-22T04:31:36.048Z,3.07
2018-07-22T04:34:04.357Z,3.10
2018-07-22T04:36:32.677Z,3.30
2018-07-22T04:39:01.005Z,3.23
2018-07-22T04:41:29.403Z,3.27
2018-07-22T04:43:57.433Z,3.00
2018-07-22T04:46:25.743Z,2.90
2018-07-22T04:48:54.042Z,3.07
2018-07-22T04:51:22.075Z,3.20
2018-07-22T04:53:50.414Z,2.70
2018-07-22T04:56:18.731Z,2.70
2018-07-22T04:58:47.042Z,2.90
2018-07-22T05:01:15.350Z,3.20
2018-07-22T05:03:43.676Z,3.10
2018-07-22T05:06:12.002Z,3.03
2018-07-22T05:08:40.307Z,3.60
2018-07-22T05:11:08.621Z,2.97
2018-07-22T05:13:36.950Z,3.03
2018-07-22T05:16:05.285Z,2.80
2018-07-22T05:18:33.453Z,3.07
2018-07-22T05:21:01.776Z,2.90
2018-07-22T05:23:30.102Z,3.00
2018-07-22T05:25:58.462Z,2.77
2018-07-22T05:28:26.811Z,3.10
2018-07-22T05:30:55.102Z,3.07
2018-07-22T05:33:23.406Z,2.90
2018-07-22T05:35:51.737Z,3.80
2018-07-22T05:38:20.105Z,3.80
2018-07-22T05:40:48.524Z,14.47
2018-07-22T05:43:16.886Z,22.93
2018-07-22T05:45:45.191Z,36.47
2018-07-22T05:48:13.542Z,23.10
2018-07-22T05:50:41.844Z,18.73
2018-07-22T05:53:10.183Z,15.57
2018-07-22T05:55:38.510Z,19.13
2018-07-22T05:58:06.819Z,17.90
2018-07-22T06:00:35.125Z,20.83
2018-07-22T06:03:03.969Z,56.80
2018-07-22T06:05:32.066Z,61.93
2018-07-22T06:08:00.376Z,59.90
2018-07-22T06:10:28.750Z,53.83
2018-07-22T06:12:57.157Z,54.87
2018-07-22T06:15:25.771Z,53.23
2018-07-22T06:17:54.076Z,48.57
2018-07-22T06:20:22.410Z,46.93
2018-07-22T06:22:50.477Z,52.40
2018-07-22T06:25:18.812Z,55.00
2018-07-22T06:27:47.146Z,52.10
2018-07-22T06:30:15.479Z,55.47
2018-07-22T06:32:43.832Z,51.93
2018-07-22T06:35:12.153Z,47.10
2018-07-22T06:37:40.479Z,47.37
2018-07-22T06:40:08.878Z,46.13
2018-07-22T06:42:37.223Z,67.50
2018-07-22T06:45:05.908Z,55.10
2018-07-22T06:47:34.222Z,48.50
2018-07-22T06:50:02.640Z,49.47
2018-07-22T06:52:30.953Z,47.23
2018-07-22T06:54:59.317Z,47.93
2018-07-22T06:57:27.719Z,51.40
2018-07-22T06:59:56.099Z,51.93
2018-07-22T07:02:24.419Z,51.37
2018-07-22T07:04:52.859Z,50.67
2018-07-22T07:07:21.182Z,55.90
2018-07-22T07:09:49.507Z,48.43
2018-07-22T07:12:17.826Z,44.27
2018-07-22T07:14:46.134Z,46.97
2018-07-22T07:17:14.206Z,41.60
2018-07-22T07:19:42.497Z,38.80
2018-07-22T07:22:10.811Z,37.53
2018-07-22T07:24:39.127Z,37.63
2018-07-22T07:27:07.433Z,36.93
2018-07-22T07:29:35.765Z,36.73
2018-07-22T07:32:04.062Z,36.50
2018-07-22T07:34:32.401Z,36.20
2018-07-22T07:37:00.739Z,35.23
2018-07-22T07:39:29.030Z,34.23
2018-07-22T07:41:57.335Z,36.27
2018-07-22T07:44:25.634Z,36.07
2018-07-22T07:46:53.987Z,32.83
2018-07-22T07:49:22.286Z,32.30
2018-07-22T07:51:50.608Z,30.60
2018-07-22T07:54:18.899Z,31.00
2018-07-22T07:56:47.342Z,29.90
2018-07-22T07:59:15.652Z,28.73
2018-07-22T08:01:43.975Z,26.77
2018-07-22T08:04:12.279Z,27.57
2018-07-22T08:06:40.734Z,26.63
2018-07-22T08:09:10.225Z,25.93
2018-07-22T08:11:38.578Z,25.43
2018-07-22T08:14:06.882Z,25.60
2018-07-22T08:16:35.800Z,25.80
2018-07-22T08:19:04.192Z,24.70
2018-07-22T08:21:32.461Z,22.90
2018-07-22T08:24:00.750Z,23.60
2018-07-22T08:26:29.063Z,23.50
2018-07-22T08:29:33.995Z,21.80
2018-07-22T08:32:03.440Z,22.50
2018-07-22T08:34:31.491Z,23.07
2018-07-22T08:37:00.299Z,21.43
2018-07-22T08:39:29.599Z,20.47
2018-07-22T08:41:58.527Z,21.30
2018-07-22T08:44:27.093Z,20.40
2018-07-22T08:46:55.402Z,19.80
2018-07-22T08:49:23.714Z,19.57
2018-07-22T08:51:52.076Z,19.17
2018-07-22T08:54:20.371Z,18.57
2018-07-22T08:56:48.679Z,19.13
2018-07-22T08:59:16.762Z,24.03
2018-07-22T09:01:45.064Z,27.60
2018-07-22T09:04:13.378Z,20.57
2018-07-22T09:06:41.586Z,22.03
2018-07-22T09:09:11.179Z,23.97
2018-07-22T09:11:39.290Z,23.00
2018-07-22T09:14:08.211Z,24.17
2018-07-22T09:16:36.618Z,20.57
2018-07-22T09:19:04.926Z,27.97
2018-07-22T09:21:33.338Z,24.20
2018-07-22T09:24:01.736Z,25.37
2018-07-22T09:26:30.071Z,26.40
2018-07-22T09:28:58.407Z,25.13
2018-07-22T09:31:26.719Z,24.30
2018-07-22T09:33:55.046Z,24.53
2018-07-22T09:36:25.201Z,23.90
2018-07-22T09:38:53.466Z,24.03
2018-07-22T09:41:21.743Z,22.13
2018-07-22T09:43:50.197Z,24.60
2018-07-22T09:46:18.623Z,26.73
2018-07-22T09:48:46.925Z,24.43
2018-07-22T09:51:15.337Z,24.07
2018-07-22T09:53:43.728Z,25.00
2018-07-22T09:56:12.053Z,23.93
2018-07-22T09:58:40.371Z,23.10
2018-07-22T10:01:08.684Z,24.47
2018-07-22T10:03:37.086Z,23.03
2018-07-22T10:06:05.610Z,22.47
2018-07-22T10:08:33.928Z,23.03
2018-07-22T10:11:02.399Z,21.80
2018-07-22T10:13:30.469Z,21.23
2018-07-22T10:15:58.806Z,20.37
2018-07-22T10:18:27.118Z,20.67
2018-07-22T10:20:55.431Z,19.90
2018-07-22T10:23:23.856Z,23.70
2018-07-22T10:25:52.134Z,30.53
2018-07-22T10:28:20.468Z,27.93
2018-07-22T10:30:48.778Z,25.87
2018-07-22T10:33:17.087Z,25.37
2018-07-22T10:35:45.413Z,26.80
2018-07-22T10:38:13.718Z,25.97
2018-07-22T10:40:42.126Z,24.63
2018-07-22T10:43:10.466Z,24.27
2018-07-22T10:45:38.782Z,23.70
2018-07-22T10:48:07.101Z,23.23
2018-07-22T10:50:35.449Z,22.23
2018-07-22T10:53:03.897Z,22.23
2018-07-22T10:55:32.212Z,22.47
2018-07-22T10:58:00.533Z,22.90
2018-07-22T11:00:28.911Z,38.63
2018-07-22T11:02:57.226Z,28.03
2018-07-22T11:05:25.322Z,24.13
2018-07-22T11:07:53.630Z,25.07
2018-07-22T11:10:21.944Z,25.83
2018-07-22T11:12:50.339Z,24.90
2018-07-22T11:15:18.796Z,24.57
2018-07-22T11:17:47.136Z,28.27
2018-07-22T11:20:15.462Z,26.80
2018-07-22T11:22:43.775Z,26.13
2018-07-22T11:25:12.190Z,27.20
2018-07-22T11:27:40.482Z,28.00
2018-07-22T11:30:08.815Z,26.90
2018-07-22T11:32:37.128Z,26.90
2018-07-22T11:35:05.489Z,26.67
2018-07-22T11:37:33.829Z,26.30
2018-07-22T11:40:02.150Z,31.97
2018-07-22T11:42:30.462Z,37.40
2018-07-22T11:44:58.712Z,33.47
2018-07-22T11:47:27.007Z,31.77
2018-07-22T11:49:55.328Z,32.77
2018-07-22T11:52:23.757Z,29.70
2018-07-22T11:54:52.039Z,31.83
2018-07-22T11:57:20.378Z,34.10
2018-07-22T11:59:48.682Z,33.17
2018-07-22T12:02:16.997Z,31.73
2018-07-22T12:04:45.321Z,32.43
2018-07-22T12:07:13.676Z,32.70
2018-07-22T12:09:41.987Z,31.40
2018-07-22T12:12:10.448Z,30.30
2018-07-22T12:14:38.772Z,28.23
2018-07-22T12:17:07.094Z,29.93
2018-07-22T12:19:35.411Z,29.03
2018-07-22T12:22:03.735Z,27.83
2018-07-22T12:24:32.107Z,27.10
2018-07-22T12:27:00.417Z,26.50
2018-07-22T12:29:28.760Z,24.83
2018-07-22T12:31:57.059Z,24.40
2018-07-22T12:34:25.403Z,23.30
2018-07-22T12:36:53.684Z,21.97
2018-07-22T12:39:21.985Z,22.20
2018-07-22T12:41:50.337Z,21.27
2018-07-22T12:44:18.676Z,19.37
2018-07-22T12:46:46.986Z,23.13
2018-07-22T12:49:15.305Z,22.87
2018-07-22T12:51:43.611Z,35.03
2018-07-22T12:54:11.943Z,24.80
2018-07-22T12:56:40.279Z,24.90
2018-07-22T12:59:08.613Z,24.53
2018-07-22T13:01:36.950Z,24.17
2018-07-22T13:04:05.416Z,23.43
2018-07-22T13:06:33.735Z,22.57
2018-07-22T13:09:02.111Z,22.00
2018-07-22T13:11:30.541Z,22.30
2018-07-22T13:13:58.863Z,23.33
2018-07-22T13:16:27.178Z,21.80
2018-07-22T13:18:55.570Z,21.87
2018-07-22T13:21:23.834Z,24.17
2018-07-22T13:23:52.215Z,26.57
2018-07-22T13:26:20.519Z,30.03
2018-07-22T13:28:48.862Z,28.00
2018-07-22T13:31:17.194Z,26.80
2018-07-22T13:33:45.702Z,26.63
2018-07-22T13:36:14.037Z,25.83
2018-07-22T13:38:42.366Z,24.83
2018-07-22T13:41:10.793Z,24.13
2018-07-22T13:43:39.141Z,22.87
2018-07-22T13:46:07.478Z,22.93
2018-07-22T13:48:35.815Z,22.60
2018-07-22T13:51:04.163Z,24.17
2018-07-22T13:53:32.554Z,22.77
2018-07-22T13:56:00.901Z,26.90
2018-07-22T13:58:29.228Z,22.90
2018-07-22T14:00:57.542Z,21.43
2018-07-22T14:03:26.965Z,22.67
2018-07-22T14:05:55.305Z,22.70
2018-07-22T14:08:23.953Z,23.20
2018-07-22T14:10:52.335Z,23.73
2018-07-22T14:13:20.656Z,23.03
2018-07-22T14:15:48.979Z,20.43
2018-07-22T14:18:17.335Z,20.10
2018-07-22T14:20:45.671Z,20.23
2018-07-22T14:23:15.203Z,19.73
2018-07-22T14:25:43.519Z,19.60
2018-07-22T14:28:12.271Z,18.20
2018-07-22T14:30:40.542Z,28.90
2018-07-22T14:33:08.859Z,23.23
2018-07-22T14:35:37.180Z,19.80
2018-07-22T14:38:05.850Z,22.90
2018-07-22T14:40:34.237Z,20.27
2018-07-22T14:43:02.572Z,21.87
2018-07-22T14:45:31.976Z,20.57
2018-07-22T14:48:00.387Z,19.70
2018-07-22T14:50:28.744Z,17.40
2018-07-22T14:52:57.141Z,17.50
2018-07-22T14:55:25.487Z,17.67
2018-07-22T14:57:53.819Z,17.27
2018-07-22T15:00:21.887Z,15.93
2018-07-22T15:02:50.228Z,15.83
2018-07-22T15:05:18.540Z,15.03
2018-07-22T15:07:46.891Z,15.17
2018-07-22T15:10:15.240Z,14.77
2018-07-22T15:12:43.625Z,18.23
2018-07-22T15:15:12.044Z,16.03
2018-07-22T15:17:40.375Z,21.33
2018-07-22T15:20:08.942Z,21.53
2018-07-22T15:22:37.425Z,18.70
2018-07-22T15:25:05.871Z,17.93
2018-07-22T15:27:34.182Z,17.10
2018-07-22T15:30:02.724Z,16.53
2018-07-22T15:32:31.223Z,16.47
2018-07-22T15:34:59.537Z,16.50
2018-07-22T15:37:27.834Z,16.40
2018-07-22T15:39:56.696Z,15.77
2018-07-22T15:42:24.998Z,15.20
2018-07-22T15:44:53.366Z,14.10
2018-07-22T15:47:21.727Z,11.17
2018-07-22T15:49:50.224Z,8.47
2018-07-22T15:52:18.559Z,11.37
2018-07-22T15:54:48.726Z,12.87
2018-07-22T15:57:17.215Z,8.53
2018-07-22T15:59:45.513Z,6.67
2018-07-22T16:02:13.886Z,10.70
2018-07-22T16:04:42.191Z,11.53
2018-07-22T16:07:10.534Z,14.83
2018-07-22T16:09:38.904Z,5.53
2018-07-22T16:12:07.248Z,15.47
2018-07-22T16:14:35.334Z,17.13
2018-07-22T16:17:03.456Z,9.37
2018-07-22T16:19:31.836Z,9.53
2018-07-22T16:22:00.223Z,6.27
2018-07-22T16:24:28.568Z,5.17
2018-07-22T16:26:57.210Z,5.67
2018-07-22T16:29:25.254Z,4.40
2018-07-22T16:31:53.565Z,3.67
2018-07-22T16:34:21.901Z,2.83
2018-07-22T16:36:50.190Z,3.03
2018-07-22T16:39:18.543Z,3.90
2018-07-22T16:41:46.924Z,14.33
2018-07-22T16:44:16.342Z,13.17
2018-07-22T16:46:44.662Z,8.63
2018-07-22T16:49:12.995Z,7.27
2018-07-22T16:51:41.354Z,8.57
2018-07-22T16:54:09.689Z,7.30
2018-07-22T16:56:37.763Z,4.97
2018-07-22T16:59:06.067Z,4.47
2018-07-22T17:01:34.417Z,3.30
2018-07-22T17:04:02.730Z,3.23
2018-07-22T17:06:31.089Z,4.40
2018-07-22T17:08:59.623Z,4.10
2018-07-22T17:11:27.958Z,3.30
2018-07-22T17:13:56.324Z,4.67
2018-07-22T17:16:24.846Z,7.57
2018-07-22T17:18:53.265Z,16.70
2018-07-22T17:21:21.791Z,11.33
2018-07-22T17:23:50.695Z,19.17
2018-07-22T17:26:19.040Z,7.63
2018-07-22T17:28:47.431Z,6.77
2018-07-22T17:31:15.872Z,5.27
2018-07-22T17:33:44.096Z,4.50
2018-07-22T17:36:12.408Z,3.40
2018-07-22T17:38:40.766Z,3.83
2018-07-22T17:41:09.227Z,2.97
2018-07-22T17:43:37.558Z,2.60
2018-07-22T17:46:05.845Z,2.73
2018-07-22T17:48:34.153Z,2.80
2018-07-22T17:51:02.512Z,3.33
2018-07-22T17:53:30.790Z,3.00
2018-07-22T17:55:59.120Z,3.17
2018-07-22T17:58:27.410Z,4.00
2018-07-22T18:00:55.836Z,6.40
2018-07-22T18:03:31.672Z,17.80
2018-07-22T18:06:00.336Z,8.53
2018-07-22T18:08:28.665Z,9.67
2018-07-22T18:10:57.324Z,5.00
2018-07-22T18:13:25.643Z,4.60
2018-07-22T18:15:53.966Z,3.30
2018-07-22T18:18:22.167Z,4.33
2018-07-22T18:20:50.713Z,7.30
2018-07-22T18:23:19.083Z,12.10
2018-07-22T18:25:51.800Z,6.27
2018-07-22T18:28:20.238Z,7.17
2018-07-22T18:30:52.476Z,5.03
2018-07-22T18:33:20.787Z,3.60
2018-07-22T18:35:49.106Z,3.70
2018-07-22T18:38:17.532Z,8.53
2018-07-22T18:40:46.116Z,6.77
2018-07-22T18:43:14.761Z,6.40
2018-07-22T18:45:43.091Z,4.10
2018-07-22T18:48:11.812Z,4.47
2018-07-22T18:50:40.212Z,3.60
2018-07-22T18:53:09.138Z,3.40
2018-07-22T18:55:37.905Z,3.70
2018-07-22T18:58:06.698Z,4.03
2018-07-22T19:00:35.401Z,3.43
2018-07-22T19:03:04.398Z,4.73
2018-07-22T19:05:33.132Z,7.70
2018-07-22T19:08:01.972Z,6.40
2018-07-22T19:10:30.758Z,13.87
2018-07-22T19:12:59.523Z,13.60
2018-07-22T19:15:28.237Z,9.30
2018-07-22T19:17:56.922Z,5.27
2018-07-22T19:20:25.605Z,3.97
2018-07-22T19:22:54.389Z,3.63
2018-07-22T19:25:23.079Z,3.47
2018-07-22T19:27:51.848Z,3.37
2018-07-22T19:30:20.559Z,3.33
2018-07-22T19:32:49.243Z,18.40
2018-07-22T19:35:17.927Z,85.40
2018-07-22T19:37:46.818Z,52.07
2018-07-22T19:40:15.509Z,16.97
2018-07-22T19:42:44.269Z,12.87
2018-07-22T19:45:12.982Z,8.50
2018-07-22T19:47:43.826Z,6.30
2018-07-22T19:50:12.296Z,7.37
2018-07-22T19:52:41.085Z,4.80
2018-07-22T19:55:09.878Z,4.67
2018-07-22T19:57:38.968Z,4.10
2018-07-22T20:00:07.758Z,6.97
2018-07-22T20:02:36.443Z,5.17
2018-07-22T20:05:05.201Z,4.40
2018-07-22T20:07:34.226Z,4.43
2018-07-22T20:10:03.015Z,14.13
2018-07-22T20:12:31.838Z,16.00
2018-07-22T20:15:00.694Z,16.23
2018-07-22T20:17:29.579Z,6.10
2018-07-22T20:19:58.270Z,5.33
2018-07-22T20:22:27.186Z,4.53
2018-07-22T20:24:55.850Z,5.00
2018-07-22T20:27:24.191Z,4.00
2018-07-22T20:29:52.808Z,4.27
2018-07-22T20:32:21.496Z,4.63
2018-07-22T20:34:50.180Z,10.60
2018-07-22T20:37:18.530Z,4.43
2018-07-22T20:39:47.041Z,4.60
2018-07-22T20:42:15.726Z,4.83
2018-07-22T20:44:44.060Z,4.73
2018-07-22T20:47:12.501Z,4.53
2018-07-22T20:49:40.825Z,4.67
2018-07-22T20:52:09.144Z,12.47
2018-07-22T20:54:37.476Z,15.87
2018-07-22T20:57:06.120Z,10.07
2018-07-22T20:59:34.504Z,6.10
2018-07-22T21:02:02.849Z,6.37
2018-07-22T21:04:31.254Z,18.13
2018-07-22T21:06:59.607Z,4.97
2018-07-22T21:09:27.936Z,4.67
2018-07-22T21:13:07.561Z,4.93
2018-07-22T21:15:36.025Z,8.47
2018-07-22T21:18:04.431Z,13.67
2018-07-22T21:20:32.766Z,10.47
2018-07-22T21:23:01.107Z,8.33
2018-07-22T21:25:29.468Z,5.93
2018-07-22T21:27:57.815Z,6.07
2018-07-22T21:30:26.130Z,5.80
2018-07-22T21:32:54.245Z,5.33
2018-07-22T21:35:22.555Z,5.60
2018-07-22T21:37:50.902Z,4.83
2018-07-22T21:40:19.262Z,5.77
2018-07-22T21:42:47.691Z,18.97
2018-07-22T21:45:16.051Z,11.77
2018-07-22T21:47:44.383Z,9.10
2018-07-22T21:50:12.699Z,6.33
2018-07-22T21:52:41.309Z,5.43
2018-07-22T21:55:09.660Z,5.33
2018-07-22T21:57:38.181Z,5.10
2018-07-22T22:00:11.973Z,3.90
2018-07-22T22:02:40.293Z,4.10
2018-07-22T22:05:08.353Z,4.37
2018-07-22T22:07:36.687Z,4.20
2018-07-22T22:10:05.193Z,3.73
2018-07-22T22:12:33.481Z,4.33
2018-07-22T22:15:01.838Z,3.80
2018-07-22T22:17:30.220Z,3.83
2018-07-22T22:19:58.311Z,3.60
2018-07-22T22:22:26.667Z,5.43
2018-07-22T22:24:54.996Z,7.90
2018-07-22T22:27:23.326Z,6.60
2018-07-22T22:29:51.705Z,5.50
2018-07-22T22:32:20.045Z,42.73
2018-07-22T22:34:48.428Z,44.47
2018-07-22T22:37:16.806Z,20.93
2018-07-22T22:39:45.969Z,12.77
2018-07-22T22:42:14.378Z,8.43
2018-07-22T22:44:42.712Z,7.33
2018-07-22T22:47:11.144Z,5.30
2018-07-22T22:49:39.534Z,4.83
2018-07-22T22:52:07.903Z,4.77
2018-07-22T22:54:36.263Z,4.13
2018-07-22T22:57:04.642Z,4.17
2018-07-22T22:59:33.080Z,5.10
2018-07-22T23:02:01.450Z,4.07
2018-07-22T23:04:29.836Z,4.10
2018-07-22T23:06:58.208Z,4.37
2018-07-22T23:09:26.562Z,4.20
2018-07-22T23:11:54.905Z,4.17
2018-07-22T23:14:23.224Z,4.03
2018-07-22T23:16:51.562Z,4.03
2018-07-22T23:19:19.863Z,3.93
2018-07-22T23:21:48.212Z,4.20
2018-07-22T23:24:16.529Z,3.70
2018-07-22T23:26:44.924Z,4.03
2018-07-22T23:29:13.244Z,8.63
2018-07-22T23:31:41.620Z,43.63
2018-07-22T23:34:09.947Z,27.20
2018-07-22T23:36:38.298Z,15.33
2018-07-22T23:39:08.265Z,10.00
2018-07-22T23:41:36.598Z,11.47
2018-07-22T23:44:04.926Z,5.47
2018-07-22T23:46:33.260Z,3.93
2018-07-22T23:49:01.576Z,4.33
2018-07-22T23:51:29.898Z,4.00
2018-07-22T23:53:58.202Z,4.27
2018-07-22T23:56:26.511Z,3.67
2018-07-22T23:58:54.840Z,4.70
